TAF and METAR

Decoding for American and Canadian METARs and TAFs is not fully implemented.

Could not understand the following METAR

PAKF 010956Z AUTO 26010G14KT 10SM BKN048 04/M04 A2946 RMK AO2 PK WND 29032/0910 UPB02E06SNE02 SLP977 P0014 T00391044
No TAF available for False Pass Airport
False Pass Airport in United States of America at 6m

Latest 5 airports